Terminal Aerodrome Forecast
Issued by NWS

Home | Current Version | Previous Version | Text Only | Print | Product List | Glossary On
Versions: 1 2 3 4 5 6 7 8 9 10 11 12 13 14 15 16
859
FTUS46 KPDT 302327
TAFRDM
TAF
KRDM 302327Z 3100/3124 32007KT P6SM SKC
     FM310600 VRB04KT P6SM SKC
     FM311000 17003KT P6SM SCT070 SCT250
     FM311800 31009KT P6SM SCT060
     FM312100 32012G20KT P6SM SCT060=

USA.gov is the U.S. government's official web portal to all federal, state and local government web resources and services.